Time;durP1;ratioP1;P1;durP2;ratioP2;P2;SDS_P1;SDS_P2;PMS_P1;PMS_P2;Temp;Humidity;BMP_temperature;BMP_pressure;BME280_temperature;BME280_humidity;BME280_pressure;Samples;Min_cycle;Max_cycle;Signal;HPM_P1;HPM_P2
2023/09/09 00:02:09;;;;;;;11.50;8.97;;;;;;;16.51;55.16;101605.34;5019257;28;20502;-69
2023/09/09 00:04:47;;;;;;;13.48;9.45;;;;;;;16.46;56.13;101603.88;5023700;28;20045;-69
2023/09/09 00:07:30;;;;;;;13.18;10.45;;;;;;;16.55;55.95;101598.09;5010351;28;21001;-67
2023/09/09 00:09:58;;;;;;;13.43;10.05;;;;;;;16.52;55.86;101596.50;5021375;28;20025;-67
2023/09/09 00:12:33;;;;;;;10.77;8.52;;;;;;;16.59;55.68;101599.66;5019536;28;20102;-67
2023/09/09 00:14:59;;;;;;;11.40;8.40;;;;;;;16.72;55.14;101605.97;5021609;28;20069;-67
2023/09/09 00:17:46;;;;;;;9.60;8.60;;;;;;;16.67;54.98;101604.53;5020453;28;20076;-67
2023/09/09 00:20:19;;;;;;;11.68;8.95;;;;;;;16.58;54.97;101596.16;5017470;28;20479;-67
2023/09/09 00:22:50;;;;;;;9.90;7.75;;;;;;;16.68;55.17;101599.16;5018292;28;20045;-68
2023/09/09 00:25:20;;;;;;;11.10;8.43;;;;;;;16.55;55.06;101592.81;5023641;28;20508;-67
2023/09/09 00:28:04;;;;;;;9.55;8.38;;;;;;;16.49;55.09;101588.75;5007417;28;20283;-67
2023/09/09 00:30:41;;;;;;;12.35;7.97;;;;;;;16.45;55.27;101596.91;5019133;28;20086;-67
2023/09/09 00:33:25;;;;;;;10.45;8.23;;;;;;;16.50;54.96;101589.59;5033059;28;20043;-69
2023/09/09 00:36:03;;;;;;;10.15;7.88;;;;;;;16.61;54.76;101593.34;5028259;28;20029;-67
2023/09/09 00:38:34;;;;;;;9.93;6.97;;;;;;;16.66;54.88;101590.47;5017954;28;20487;-67
2023/09/09 00:41:24;;;;;;;9.82;7.90;;;;;;;16.68;54.48;101591.22;5021142;28;20025;-67
2023/09/09 00:43:58;;;;;;;8.48;7.57;;;;;;;16.60;54.79;101596.94;5033668;28;20041;-71
2023/09/09 00:46:28;;;;;;;12.05;8.82;;;;;;;16.54;54.70;101591.97;5040434;28;20047;-71
2023/09/09 00:49:03;;;;;;;;;;;;;;;;;;;;;
2023/09/09 00:51:37;;;;;;;13.25;9.05;;;;;;;16.18;55.21;101603.56;5039326;28;20045;-71
2023/09/09 00:54:18;;;;;;;9.45;7.80;;;;;;;16.11;55.50;101598.69;5020241;28;20119;-71
2023/09/09 00:57:00;;;;;;;;;;;;;;;;;;;;;
2023/09/09 00:59:36;;;;;;;9.82;8.02;;;;;;;15.96;55.92;101585.31;5009840;28;20099;-70
2023/09/09 01:02:06;;;;;;;10.70;7.18;;;;;;;16.09;55.51;101587.38;5018672;28;22273;-66
2023/09/09 01:04:33;;;;;;;11.15;8.40;;;;;;;16.24;55.01;101598.88;5019854;28;20169;-67
2023/09/09 01:07:02;;;;;;;15.15;8.05;;;;;;;16.31;54.99;101598.50;5003245;28;20163;-67
2023/09/09 01:09:30;;;;;;;10.68;7.85;;;;;;;16.28;54.68;101596.00;5036043;28;20053;-67
2023/09/09 01:11:56;;;;;;;9.52;6.82;;;;;;;16.25;54.90;101596.19;5021949;28;20529;-67
2023/09/09 01:14:21;;;;;;;8.65;7.80;;;;;;;16.15;55.00;101594.94;5020222;28;20136;-67
2023/09/09 01:16:51;;;;;;;11.70;7.53;;;;;;;15.99;55.46;101593.09;5039891;28;20037;-71
2023/09/09 01:19:18;;;;;;;10.23;7.95;;;;;;;15.84;55.55;101593.88;5019448;28;20086;-68
2023/09/09 01:21:46;;;;;;;12.15;8.93;;;;;;;15.70;55.91;101601.63;5041889;28;20098;-67
2023/09/09 01:24:16;;;;;;;8.63;7.72;;;;;;;15.63;56.41;101597.59;5025882;28;20045;-73
2023/09/09 01:26:45;;;;;;;10.85;8.82;;;;;;;15.59;56.70;101592.47;5025753;28;20126;-71
2023/09/09 01:29:11;;;;;;;14.10;9.27;;;;;;;15.56;56.47;101589.97;5010088;28;20033;-70
2023/09/09 01:31:37;;;;;;;12.20;9.15;;;;;;;15.53;57.08;101590.16;5023870;28;20128;-70
2023/09/09 01:34:05;;;;;;;11.48;8.80;;;;;;;15.62;56.90;101590.59;5025816;28;20407;-70
2023/09/09 01:36:30;;;;;;;9.02;7.82;;;;;;;15.66;56.76;101592.16;5017720;28;20391;-72
2023/09/09 01:38:59;;;;;;;10.40;9.02;;;;;;;15.71;56.54;101583.09;5021941;28;20056;-70
2023/09/09 01:41:29;;;;;;;15.30;10.68;;;;;;;15.79;56.19;101588.84;5024864;28;20036;-71
2023/09/09 01:44:02;;;;;;;11.07;9.20;;;;;;;15.70;56.52;101591.06;5018077;28;20044;-71
2023/09/09 01:46:35;;;;;;;10.48;9.27;;;;;;;15.57;56.32;101594.34;5035437;28;20156;-71
2023/09/09 01:49:11;;;;;;;11.75;9.40;;;;;;;15.45;56.88;101589.66;5008749;28;20056;-67
2023/09/09 01:51:41;;;;;;;14.10;9.35;;;;;;;15.34;56.97;101586.72;5024082;28;20061;-67
2023/09/09 01:54:09;;;;;;;12.30;8.57;;;;;;;15.30;57.25;101590.41;5024270;28;20349;-66
2023/09/09 01:56:44;;;;;;;13.45;8.82;;;;;;;15.25;57.38;101576.63;5022046;28;20033;-73
2023/09/09 01:59:09;;;;;;;10.05;8.45;;;;;;;15.21;57.52;101580.28;5039454;28;20536;-72
2023/09/09 02:01:35;;;;;;;9.73;8.73;;;;;;;15.15;57.73;101582.31;5024506;28;20035;-72
2023/09/09 02:04:00;;;;;;;7.47;6.68;;;;;;;15.26;57.50;101576.56;5013059;28;20047;-72
2023/09/09 02:06:29;;;;;;;7.40;6.65;;;;;;;15.31;57.33;101576.34;5023104;28;20091;-69
2023/09/09 02:09:13;;;;;;;9.15;6.60;;;;;;;15.41;57.00;101574.09;5013914;28;20120;-69
2023/09/09 02:11:45;;;;;;;10.80;7.38;;;;;;;15.41;56.97;101577.56;5027894;28;20091;-69
2023/09/09 02:14:14;;;;;;;8.95;7.70;;;;;;;15.33;56.94;101575.31;4976911;28;20041;-69
2023/09/09 02:16:40;;;;;;;8.43;6.53;;;;;;;15.33;56.95;101574.47;5039373;28;20036;-69
2023/09/09 02:19:05;;;;;;;8.30;7.45;;;;;;;15.32;56.75;101580.66;5017836;28;20095;-69
2023/09/09 02:21:30;;;;;;;10.25;7.80;;;;;;;15.25;57.20;101576.63;5035736;28;20041;-69
2023/09/09 02:23:58;;;;;;;8.02;6.50;;;;;;;15.27;57.01;101580.03;5016836;28;20044;-69
2023/09/09 02:26:24;;;;;;;9.68;7.18;;;;;;;15.34;56.85;101578.81;5025003;28;20086;-69
2023/09/09 02:28:49;;;;;;;8.70;6.93;;;;;;;15.42;56.70;101568.75;5020240;28;20075;-69
2023/09/09 02:31:15;;;;;;;8.95;7.60;;;;;;;15.51;56.29;101577.97;5023675;28;20115;-74
2023/09/09 02:33:43;;;;;;;8.55;7.68;;;;;;;15.58;56.19;101574.09;5034381;28;20037;-73
2023/09/09 02:36:13;;;;;;;9.65;8.57;;;;;;;15.50;55.99;101577.09;5017316;28;20433;-72
2023/09/09 02:38:39;;;;;;;9.57;7.53;;;;;;;15.36;56.31;101579.59;5010569;28;20040;-72
2023/09/09 02:41:06;;;;;;;8.95;6.75;;;;;;;15.34;56.37;101569.13;5016567;28;20443;-76
2023/09/09 02:43:40;;;;;;;9.27;6.97;;;;;;;15.29;56.46;101575.56;5034803;28;20087;-73
2023/09/09 02:46:11;;;;;;;8.05;6.65;;;;;;;15.24;56.34;101570.50;5038943;28;20058;-73
2023/09/09 02:48:45;;;;;;;8.77;6.78;;;;;;;15.07;56.57;101571.28;5004966;28;20040;-74
2023/09/09 02:51:24;;;;;;;6.70;6.00;;;;;;;14.91;56.69;101562.41;5018134;28;20454;-69
2023/09/09 02:53:51;;;;;;;8.98;7.55;;;;;;;14.90;57.25;101565.97;5041228;28;20033;-68
2023/09/09 02:56:22;;;;;;;8.68;6.70;;;;;;;14.90;57.01;101563.31;5023501;28;20025;-68
2023/09/09 02:58:50;;;;;;;12.45;9.15;;;;;;;14.85;57.78;101566.19;5018982;28;20388;-68
2023/09/09 03:01:21;;;;;;;10.48;9.25;;;;;;;14.84;57.78;101564.50;5025729;28;20178;-67
2023/09/09 03:03:57;;;;;;;12.18;9.75;;;;;;;14.88;58.04;101568.69;5031241;28;20183;-68
2023/09/09 03:06:25;;;;;;;13.75;10.63;;;;;;;14.91;58.06;101567.69;5006845;28;20040;-69
2023/09/09 03:08:54;;;;;;;16.15;11.32;;;;;;;14.87;58.24;101566.97;5017637;28;20041;-70
2023/09/09 03:11:22;;;;;;;15.43;12.63;;;;;;;14.90;58.26;101563.31;5024943;28;20124;-70
2023/09/09 03:13:50;;;;;;;13.13;11.15;;;;;;;14.98;57.61;101558.56;5026296;28;20048;-70
2023/09/09 03:16:15;;;;;;;10.90;8.82;;;;;;;15.01;57.26;101560.19;5026004;28;20037;-70
2023/09/09 03:18:41;;;;;;;13.43;9.82;;;;;;;14.92;57.50;101558.84;5019999;28;21735;-70
2023/09/09 03:21:07;;;;;;;9.85;8.73;;;;;;;15.01;57.28;101555.78;5003782;28;20061;-72
2023/09/09 03:23:33;;;;;;;15.07;10.88;;;;;;;14.97;57.30;101562.13;5019318;28;20044;-73
2023/09/09 03:25:59;;;;;;;12.70;10.38;;;;;;;14.84;57.30;101568.91;5024281;28;20033;-73
2023/09/09 03:28:27;;;;;;;9.75;8.10;;;;;;;14.87;57.77;101563.50;5017127;28;20072;-70
2023/09/09 03:30:57;;;;;;;10.55;9.43;;;;;;;14.86;57.19;101561.78;5023002;28;20456;-70
2023/09/09 03:33:27;;;;;;;13.05;9.25;;;;;;;14.76;57.42;101556.94;5020395;28;20067;-70
2023/09/09 03:35:56;;;;;;;11.68;9.35;;;;;;;14.68;57.44;101555.59;5038872;28;20033;-70
2023/09/09 03:38:21;;;;;;;10.93;8.80;;;;;;;14.63;57.62;101560.22;5030256;28;20585;-69
2023/09/09 03:40:47;;;;;;;8.60;7.68;;;;;;;14.80;57.36;101562.06;5030527;28;20028;-70
2023/09/09 03:43:12;;;;;;;12.52;8.70;;;;;;;14.91;56.98;101560.63;5027115;28;20086;-70
2023/09/09 03:45:38;;;;;;;9.55;7.30;;;;;;;14.90;56.83;101560.69;5021433;28;20490;-69
2023/09/09 03:48:04;;;;;;;12.32;7.75;;;;;;;14.93;56.59;101561.41;5028403;28;20043;-70
2023/09/09 03:50:31;;;;;;;10.07;8.55;;;;;;;14.82;56.41;101555.81;5025039;28;20035;-70
2023/09/09 03:52:57;;;;;;;11.23;7.82;;;;;;;14.65;56.60;101559.22;5007478;28;20040;-73
2023/09/09 03:55:27;;;;;;;10.75;8.50;;;;;;;14.51;57.13;101559.88;5020236;28;20029;-72
2023/09/09 03:57:53;;;;;;;11.20;8.32;;;;;;;14.55;56.96;101561.44;5024840;28;20041;-72
2023/09/09 04:00:19;;;;;;;11.00;7.13;;;;;;;14.56;57.03;101562.28;5024240;28;20041;-72
2023/09/09 04:02:46;;;;;;;9.73;8.02;;;;;;;14.48;57.20;101560.00;5024442;28;20045;-72
2023/09/09 04:05:12;;;;;;;9.40;8.00;;;;;;;14.35;57.30;101564.94;5004097;28;20601;-72
2023/09/09 04:07:43;;;;;;;10.38;8.52;;;;;;;14.31;57.78;101558.09;5021920;28;20501;-71
2023/09/09 04:10:09;;;;;;;11.05;8.02;;;;;;;14.31;58.21;101568.63;5024766;28;20028;-72
2023/09/09 04:12:35;;;;;;;11.25;8.13;;;;;;;14.40;57.77;101561.25;5038817;28;20037;-70
2023/09/09 04:15:01;;;;;;;10.90;8.40;;;;;;;14.41;57.69;101562.97;5026676;28;20402;-70
2023/09/09 04:17:26;;;;;;;12.27;9.60;;;;;;;14.31;58.16;101557.25;5021831;28;20025;-71
2023/09/09 04:19:52;;;;;;;10.15;8.10;;;;;;;14.32;58.59;101561.56;5021975;28;20025;-70
2023/09/09 04:22:18;;;;;;;9.48;7.43;;;;;;;14.38;57.97;101556.03;5020441;28;20597;-69
2023/09/09 04:24:43;;;;;;;10.63;6.93;;;;;;;14.39;57.83;101559.53;5020480;28;20033;-69
2023/09/09 04:27:09;;;;;;;11.07;8.63;;;;;;;14.35;57.68;101557.03;5024182;28;20033;-68
2023/09/09 04:29:35;;;;;;;11.48;8.52;;;;;;;14.24;58.07;101561.94;5024511;28;20631;-68
2023/09/09 04:32:00;;;;;;;10.23;8.45;;;;;;;14.19;58.18;101558.66;5027404;28;20036;-69
2023/09/09 04:34:26;;;;;;;9.48;7.72;;;;;;;14.18;58.33;101556.94;5025733;28;20097;-67
2023/09/09 04:36:52;;;;;;;9.82;8.35;;;;;;;14.22;58.16;101558.53;5026460;28;20487;-69
2023/09/09 04:39:17;;;;;;;11.70;8.85;;;;;;;14.22;58.02;101563.78;5019165;28;20051;-68
2023/09/09 04:41:45;;;;;;;9.20;7.60;;;;;;;14.16;57.98;101561.41;5022398;28;20022;-69
2023/09/09 04:44:11;;;;;;;10.15;6.68;;;;;;;14.09;58.09;101558.19;5037492;28;20741;-69
2023/09/09 04:46:37;;;;;;;10.95;8.05;;;;;;;14.08;58.30;101555.66;5019907;28;20052;-72
2023/09/09 04:49:03;;;;;;;9.38;7.68;;;;;;;14.09;58.26;101563.47;5022106;28;20095;-73
2023/09/09 04:51:29;;;;;;;8.30;7.32;;;;;;;14.17;57.82;101560.50;5020038;28;20021;-73
2023/09/09 04:53:57;;;;;;;8.80;7.80;;;;;;;14.19;57.91;101563.03;5008977;28;20568;-75
2023/09/09 04:56:23;;;;;;;9.02;7.78;;;;;;;14.13;57.87;101562.41;5023246;28;20037;-71
2023/09/09 04:58:50;;;;;;;10.85;7.97;;;;;;;14.12;58.04;101573.84;5024991;28;20123;-69
2023/09/09 05:01:16;;;;;;;9.77;7.85;;;;;;;14.14;58.12;101560.63;5010114;28;20590;-70
2023/09/09 05:03:41;;;;;;;9.60;7.82;;;;;;;14.21;58.05;101561.19;5021431;28;20042;-69
2023/09/09 05:06:07;;;;;;;10.27;7.50;;;;;;;14.32;57.83;101570.34;5037371;28;20025;-70
2023/09/09 05:08:33;;;;;;;8.68;6.95;;;;;;;14.47;57.52;101578.47;5039643;28;20037;-70
2023/09/09 05:10:59;;;;;;;11.13;8.13;;;;;;;14.49;57.26;101572.22;5035975;28;20032;-70
2023/09/09 05:13:25;;;;;;;10.90;8.57;;;;;;;14.43;57.61;101576.91;5026786;28;20478;-70
2023/09/09 05:15:51;;;;;;;10.85;7.85;;;;;;;14.52;57.63;101581.75;5023472;28;20284;-69
2023/09/09 05:18:17;;;;;;;10.50;8.55;;;;;;;14.70;57.37;101578.28;5023790;28;21504;-69
2023/09/09 05:20:43;;;;;;;11.25;8.10;;;;;;;14.84;57.03;101576.81;5023107;28;20037;-69
2023/09/09 05:23:09;;;;;;;15.30;10.07;;;;;;;14.89;56.71;101577.44;5019409;28;20132;-69
2023/09/09 05:25:35;;;;;;;13.90;11.32;;;;;;;14.90;56.56;101576.50;5040007;28;20769;-69
2023/09/09 05:28:01;;;;;;;14.10;11.10;;;;;;;14.91;56.65;101579.06;5022580;28;20336;-70
2023/09/09 05:30:27;;;;;;;22.95;10.68;;;;;;;14.94;56.20;101578.06;5038923;28;20033;-70
2023/09/09 05:32:53;;;;;;;13.43;10.65;;;;;;;15.00;56.51;101577.78;5018428;28;20044;-70
2023/09/09 05:35:18;;;;;;;14.15;11.18;;;;;;;15.07;56.66;101581.81;5021411;28;21090;-70
2023/09/09 05:37:45;;;;;;;15.80;12.05;;;;;;;15.15;55.95;101587.56;5016491;28;20032;-67
2023/09/09 05:40:11;;;;;;;16.63;12.18;;;;;;;15.26;56.36;101583.59;5038848;28;20545;-67
2023/09/09 05:42:40;;;;;;;15.90;10.65;;;;;;;15.31;56.05;101586.88;5037135;28;20052;-68
2023/09/09 05:45:08;;;;;;;13.35;10.88;;;;;;;15.40;55.87;101578.50;5023886;28;20033;-67
2023/09/09 05:47:37;;;;;;;17.17;13.68;;;;;;;15.47;55.66;101582.53;5022221;28;20091;-67
2023/09/09 05:50:05;;;;;;;18.08;12.18;;;;;;;15.55;55.42;101577.75;5024949;28;20440;-67
2023/09/09 05:52:31;;;;;;;18.08;13.52;;;;;;;15.66;55.40;101581.63;5018307;28;20094;-67
2023/09/09 05:54:56;;;;;;;16.48;13.00;;;;;;;15.79;55.41;101577.44;5020697;28;21574;-67
2023/09/09 05:57:22;;;;;;;19.08;12.98;;;;;;;15.91;55.12;101582.09;5034927;28;20580;-67
2023/09/09 05:59:49;;;;;;;16.10;12.88;;;;;;;16.05;55.20;101588.47;5019115;28;20091;-67
2023/09/09 06:02:16;;;;;;;15.07;12.02;;;;;;;16.30;54.96;101586.22;5001450;28;20033;-67
2023/09/09 06:04:42;;;;;;;16.73;13.50;;;;;;;17.22;53.90;101591.78;5040450;28;20084;-67
2023/09/09 06:07:08;;;;;;;19.17;12.77;;;;;;;19.26;50.37;101586.44;5005880;28;20040;-66
2023/09/09 06:09:34;;;;;;;19.77;13.05;;;;;;;21.40;43.23;101592.78;5017964;28;20041;-66
2023/09/09 06:12:01;;;;;;;15.15;12.07;;;;;;;22.99;39.89;101583.97;5037264;28;20045;-67
2023/09/09 06:14:27;;;;;;;18.33;13.52;;;;;;;24.50;36.54;101576.53;5040748;28;20203;-67
2023/09/09 06:16:53;;;;;;;15.30;11.00;;;;;;;25.61;35.71;101591.44;5022721;28;20064;-68
2023/09/09 06:19:18;;;;;;;13.45;9.35;;;;;;;26.20;34.30;101584.97;5038299;28;20800;-67
2023/09/09 06:21:46;;;;;;;16.58;12.20;;;;;;;26.74;32.39;101581.56;5019719;28;20116;-67
2023/09/09 06:24:15;;;;;;;20.13;14.05;;;;;;;27.20;31.30;101588.59;5022306;28;20044;-68
2023/09/09 06:26:42;;;;;;;17.92;13.63;;;;;;;27.53;30.24;101584.34;5024064;28;20036;-67
2023/09/09 06:29:09;;;;;;;16.70;12.63;;;;;;;27.97;29.83;101585.34;5005757;28;20053;-67
2023/09/09 06:31:35;;;;;;;11.43;8.85;;;;;;;28.56;28.90;101580.88;5020135;28;20029;-68
2023/09/09 06:34:00;;;;;;;13.13;10.30;;;;;;;29.16;27.44;101593.31;5017300;28;20044;-67
2023/09/09 06:36:26;;;;;;;18.13;11.75;;;;;;;29.43;27.71;101586.75;5020691;28;20025;-68
2023/09/09 06:38:52;;;;;;;13.70;11.85;;;;;;;29.54;27.75;101591.78;5029976;28;21884;-68
2023/09/09 06:41:18;;;;;;;10.80;9.15;;;;;;;30.35;26.98;101589.91;5018754;28;20036;-68
2023/09/09 06:43:43;;;;;;;19.85;12.25;;;;;;;30.24;26.35;101592.16;5016573;28;20045;-68
2023/09/09 06:46:09;;;;;;;10.75;9.65;;;;;;;30.83;26.49;101589.03;5017800;28;20128;-68
2023/09/09 06:48:34;;;;;;;12.65;10.93;;;;;;;30.95;25.69;101590.25;5018834;28;20473;-68
2023/09/09 06:51:00;;;;;;;15.90;10.65;;;;;;;31.19;25.36;101591.97;5018515;28;20372;-68
2023/09/09 06:53:26;;;;;;;11.38;10.18;;;;;;;31.74;24.81;101596.22;5017395;28;20067;-68
2023/09/09 06:55:52;;;;;;;12.93;11.55;;;;;;;31.61;25.09;101594.13;5018769;28;20049;-68
2023/09/09 06:58:18;;;;;;;14.60;13.05;;;;;;;31.41;24.72;101593.78;5019315;28;20730;-68
2023/09/09 07:00:49;;;;;;;15.32;10.95;;;;;;;31.62;25.15;101593.09;5018846;28;20142;-68
2023/09/09 07:03:15;;;;;;;13.50;10.80;;;;;;;30.83;26.02;101591.72;5019862;28;20052;-69
2023/09/09 07:05:40;;;;;;;10.13;8.30;;;;;;;31.02;26.66;101598.50;5039551;28;20028;-68
2023/09/09 07:08:06;;;;;;;11.10;9.95;;;;;;;32.26;23.94;101599.00;5020386;28;20048;-69
2023/09/09 07:10:32;;;;;;;10.52;9.43;;;;;;;32.93;23.97;101606.06;5042042;28;20482;-68
2023/09/09 07:12:57;;;;;;;10.13;9.10;;;;;;;33.52;22.47;101603.03;5021419;28;20447;-67
2023/09/09 07:15:23;;;;;;;12.55;11.15;;;;;;;33.48;23.54;101607.16;5024627;28;20033;-68
2023/09/09 07:17:48;;;;;;;13.63;11.50;;;;;;;33.91;22.09;101612.50;5023141;28;20047;-69
2023/09/09 07:20:15;;;;;;;12.48;11.15;;;;;;;34.12;22.88;101602.59;5025072;28;20557;-68
2023/09/09 07:22:42;;;;;;;13.65;8.43;;;;;;;34.45;22.15;101613.63;5037888;28;20092;-68
2023/09/09 07:25:08;;;;;;;13.07;11.77;;;;;;;33.65;22.96;101605.84;5024834;28;20032;-69
2023/09/09 07:27:34;;;;;;;13.65;10.40;;;;;;;33.67;22.70;101608.38;5026724;28;20925;-67
2023/09/09 07:29:59;;;;;;;12.95;11.57;;;;;;;33.91;23.12;101608.97;5022119;28;20517;-67
2023/09/09 07:32:25;;;;;;;10.77;9.75;;;;;;;33.24;23.28;101603.03;5022942;28;20148;-67
2023/09/09 07:34:50;;;;;;;12.93;11.38;;;;;;;33.05;23.70;101605.34;5023469;28;20113;-67
2023/09/09 07:37:16;;;;;;;11.85;10.75;;;;;;;33.56;23.77;101607.03;5023064;28;20029;-67
2023/09/09 07:39:52;;;;;;;15.15;13.65;;;;;;;33.07;24.43;101605.16;5023627;28;20414;-67
2023/09/09 07:42:18;;;;;;;12.57;11.30;;;;;;;34.02;22.52;101611.94;5023215;28;20061;-67
2023/09/09 07:44:45;;;;;;;11.98;9.70;;;;;;;34.33;22.46;101613.38;5023038;28;20033;-69
2023/09/09 07:47:11;;;;;;;12.88;11.60;;;;;;;34.43;22.36;101612.97;5020541;28;20522;-67
2023/09/09 07:49:37;;;;;;;13.95;12.55;;;;;;;34.06;23.47;101613.22;5046035;28;20029;-67
2023/09/09 07:52:03;;;;;;;12.20;10.57;;;;;;;34.42;22.96;101614.84;5027083;28;20044;-67
2023/09/09 07:54:33;;;;;;;11.20;9.95;;;;;;;35.37;22.00;101612.09;5021116;28;20048;-67
2023/09/09 07:57:04;;;;;;;12.50;11.30;;;;;;;35.94;20.24;101607.06;5022762;28;20036;-67
2023/09/09 07:59:29;;;;;;;11.50;10.40;;;;;;;36.11;19.99;101608.22;5035362;28;20044;-67
2023/09/09 08:01:55;;;;;;;11.55;10.35;;;;;;;36.60;20.41;101610.53;5007548;28;20036;-67
2023/09/09 08:04:21;;;;;;;11.23;8.88;;;;;;;37.05;19.56;101605.88;5020677;28;20052;-67
2023/09/09 08:06:46;;;;;;;12.70;9.32;;;;;;;37.23;19.64;101605.09;5019717;28;20091;-67
2023/09/09 08:09:13;;;;;;;12.13;10.77;;;;;;;36.59;19.71;101603.44;5017211;28;20041;-67
2023/09/09 08:11:38;;;;;;;12.68;10.13;;;;;;;35.96;20.83;101602.25;5027342;28;20041;-68
2023/09/09 08:14:04;;;;;;;9.48;8.13;;;;;;;36.72;20.45;101606.09;5020608;28;20049;-67
2023/09/09 08:16:30;;;;;;;12.98;11.18;;;;;;;36.68;19.53;101604.88;5027904;28;20088;-67
2023/09/09 08:18:58;;;;;;;15.98;12.68;;;;;;;35.05;21.50;101613.81;5018082;28;20618;-67
2023/09/09 08:21:23;;;;;;;13.27;11.73;;;;;;;34.94;21.62;101615.22;5021540;28;20475;-67
2023/09/09 08:23:49;;;;;;;13.45;12.07;;;;;;;33.95;23.67;101611.06;5021163;28;20087;-67
2023/09/09 08:26:14;;;;;;;17.77;13.15;;;;;;;34.79;22.17;101618.09;5019767;28;20033;-67
2023/09/09 08:28:40;;;;;;;15.07;13.55;;;;;;;34.98;22.37;101616.50;5039878;28;20045;-67
2023/09/09 08:31:05;;;;;;;12.70;10.75;;;;;;;35.18;23.12;101621.97;5035314;28;20063;-67
2023/09/09 08:33:31;;;;;;;15.02;11.60;;;;;;;35.53;22.02;101623.63;5020749;28;20419;-67
2023/09/09 08:35:58;;;;;;;11.43;10.38;;;;;;;35.01;22.44;101620.69;5019728;28;20033;-67
2023/09/09 08:38:23;;;;;;;14.95;11.98;;;;;;;34.80;23.06;101622.50;5020041;28;20036;-66
2023/09/09 08:41:03;;;;;;;15.32;11.48;;;;;;;34.07;24.37;101622.19;5018642;28;20037;-67
2023/09/09 08:43:47;;;;;;;14.30;12.85;;;;;;;33.42;24.85;101624.25;5020224;28;20105;-66
2023/09/09 08:46:14;;;;;;;13.93;11.70;;;;;;;32.77;26.00;101624.19;5013714;28;20041;-67
2023/09/09 08:48:42;;;;;;;12.55;11.25;;;;;;;33.14;26.11;101616.88;5020805;28;20044;-66
2023/09/09 08:51:13;;;;;;;12.82;10.38;;;;;;;33.40;26.20;101620.88;5000363;28;20566;-66
2023/09/09 08:53:43;;;;;;;10.10;9.07;;;;;;;33.97;25.32;101619.84;5018265;28;20071;-66
2023/09/09 08:56:12;;;;;;;14.57;12.07;;;;;;;32.80;25.55;101622.97;5016787;28;20669;-67
2023/09/09 08:58:37;;;;;;;9.45;8.55;;;;;;;31.86;26.96;101626.31;5021473;28;20656;-67
2023/09/09 09:01:04;;;;;;;13.68;11.32;;;;;;;31.06;28.59;101624.97;5017105;28;20270;-66
2023/09/09 09:03:32;;;;;;;9.07;8.00;;;;;;;30.57;28.36;101625.25;5020848;28;20056;-67
2023/09/09 09:05:58;;;;;;;9.50;8.65;;;;;;;30.04;29.31;101624.88;5016002;28;20060;-67
2023/09/09 09:08:23;;;;;;;14.63;11.85;;;;;;;30.01;30.10;101635.19;5017011;28;20033;-66
2023/09/09 09:10:49;;;;;;;10.85;9.75;;;;;;;29.93;29.90;101630.63;5032364;28;20025;-66
2023/09/09 09:13:15;;;;;;;14.65;11.50;;;;;;;30.64;29.24;101637.00;5016582;28;20585;-67
2023/09/09 09:15:44;;;;;;;11.80;9.93;;;;;;;30.85;28.74;101632.84;5034980;28;20175;-66
2023/09/09 09:18:09;;;;;;;11.90;10.60;;;;;;;30.97;28.55;101629.53;5016602;28;20049;-67
2023/09/09 09:20:36;;;;;;;13.55;9.73;;;;;;;31.23;28.59;101635.66;5021642;28;20087;-66
2023/09/09 09:23:04;;;;;;;11.20;10.10;;;;;;;31.86;27.57;101631.72;5012444;28;20042;-68
2023/09/09 09:25:39;;;;;;;9.35;7.45;;;;;;;31.38;28.84;101631.13;5017623;28;20422;-67
2023/09/09 09:28:05;;;;;;;8.95;8.05;;;;;;;31.16;28.81;101632.84;5014834;28;20123;-67
2023/09/09 09:30:31;;;;;;;10.30;9.30;;;;;;;30.98;29.21;101633.06;5018867;28;20037;-67
2023/09/09 09:32:57;;;;;;;13.90;8.50;;;;;;;30.78;28.98;101628.16;5018782;28;20156;-67
2023/09/09 09:35:27;;;;;;;9.18;8.27;;;;;;;30.88;28.73;101633.31;5017390;28;20028;-67
2023/09/09 09:38:02;;;;;;;10.77;7.72;;;;;;;30.75;30.18;101633.91;5034948;28;20356;-67
2023/09/09 09:40:29;;;;;;;8.73;7.88;;;;;;;31.08;29.69;101630.19;5018013;28;20308;-68
2023/09/09 09:42:58;;;;;;;10.23;9.20;;;;;;;31.25;27.81;101628.19;5029889;28;20072;-67
2023/09/09 09:45:24;;;;;;;9.48;6.32;;;;;;;31.70;28.42;101626.50;5020048;28;20047;-66
2023/09/09 09:47:51;;;;;;;6.93;5.53;;;;;;;32.00;27.40;101625.50;5013363;28;20515;-65
2023/09/09 09:50:28;;;;;;;7.35;6.72;;;;;;;31.92;27.81;101624.72;5016878;28;20629;-65
2023/09/09 09:52:58;;;;;;;8.98;8.10;;;;;;;31.78;28.55;101629.09;5016227;28;20110;-65
2023/09/09 09:55:24;;;;;;;6.28;5.63;;;;;;;31.82;28.58;101625.00;5016129;28;20419;-64
2023/09/09 09:57:53;;;;;;;11.05;7.88;;;;;;;31.45;27.64;101628.53;5014269;28;20052;-64
2023/09/09 10:00:19;;;;;;;9.90;7.68;;;;;;;31.45;29.25;101625.81;5013983;28;20041;-64
2023/09/09 10:02:48;;;;;;;8.20;7.20;;;;;;;31.67;27.85;101621.44;5014782;28;20049;-65
2023/09/09 10:05:14;;;;;;;8.35;7.43;;;;;;;31.74;27.88;101622.38;5020004;28;20804;-63
2023/09/09 10:07:45;;;;;;;10.85;8.77;;;;;;;31.52;28.50;101614.16;5013692;28;20111;-64
2023/09/09 10:10:15;;;;;;;10.97;8.00;;;;;;;32.07;28.55;101627.47;5015852;28;20026;-63
2023/09/09 10:12:54;;;;;;;9.10;7.82;;;;;;;32.06;28.05;101623.09;5022961;28;20282;-65
2023/09/09 10:15:21;;;;;;;10.88;8.10;;;;;;;32.18;27.92;101630.53;5015735;28;20086;-64
2023/09/09 10:17:52;;;;;;;9.07;7.65;;;;;;;32.33;26.83;101622.41;5015268;28;20041;-63
2023/09/09 10:20:18;;;;;;;8.35;6.22;;;;;;;32.30;27.20;101622.78;5020450;28;20037;-64
2023/09/09 10:22:48;;;;;;;13.15;7.57;;;;;;;32.15;27.45;101624.66;5018594;28;20040;-64
2023/09/09 10:25:14;;;;;;;9.32;7.57;;;;;;;32.56;27.12;101624.16;5018957;28;20068;-64
2023/09/09 10:27:40;;;;;;;8.52;7.20;;;;;;;32.27;27.48;101623.16;5015292;28;20060;-64
2023/09/09 10:30:10;;;;;;;6.40;5.32;;;;;;;32.48;25.90;101618.88;5020099;28;20033;-62
2023/09/09 10:32:36;;;;;;;7.47;6.75;;;;;;;31.70;26.70;101621.91;5015761;28;20049;-64
2023/09/09 10:35:06;;;;;;;6.30;5.70;;;;;;;31.91;28.00;101628.44;5017552;28;20037;-64
2023/09/09 10:37:36;;;;;;;8.18;7.32;;;;;;;31.58;26.96;101632.34;5011037;28;20037;-63
2023/09/09 10:40:05;;;;;;;8.93;6.93;;;;;;;31.55;27.23;101627.28;5020718;28;20255;-63
2023/09/09 10:42:34;;;;;;;5.85;5.35;;;;;;;31.45;28.63;101628.53;5014708;28;20041;-64
2023/09/09 10:45:28;;;;;;;8.23;7.07;;;;;;;31.23;27.57;101627.56;5022050;28;20032;-65
2023/09/09 10:48:04;;;;;;;8.45;7.57;;;;;;;30.91;27.45;101635.69;5008982;28;20262;-63
2023/09/09 10:50:50;;;;;;;7.25;5.93;;;;;;;31.19;28.07;101622.50;5018427;28;20056;-65
2023/09/09 10:53:16;;;;;;;5.93;5.32;;;;;;;31.76;27.98;101620.31;5016136;28;20092;-63
2023/09/09 10:55:42;;;;;;;9.95;6.13;;;;;;;31.56;28.45;101623.59;5017875;28;20116;-65
2023/09/09 10:58:09;;;;;;;7.20;6.25;;;;;;;31.66;27.47;101622.47;5013521;28;20510;-64
2023/09/09 11:00:39;;;;;;;6.88;5.50;;;;;;;32.03;26.65;101622.44;5014248;28;20116;-63
2023/09/09 11:03:08;;;;;;;;;;;;;;;31.76;26.67;101620.31;5016302;28;20415;-63
2023/09/09 11:06:03;;;;;;;5.55;4.63;;;;;;;31.55;28.42;101618.34;5035704;28;19921;-63
2023/09/09 11:08:40;;;;;;;8.23;5.80;;;;;;;31.98;26.87;101619.44;5017266;28;20051;-64
2023/09/09 11:11:11;;;;;;;5.85;5.00;;;;;;;32.80;26.28;101612.97;5018385;28;20036;-64
2023/09/09 11:13:54;;;;;;;9.88;6.20;;;;;;;32.31;26.14;101623.63;5019584;28;20053;-63
2023/09/09 11:16:31;;;;;;;6.00;5.40;;;;;;;32.90;25.70;101614.56;5015560;28;20731;-64
2023/09/09 11:19:08;;;;;;;6.47;5.40;;;;;;;32.75;25.05;101609.19;5032269;28;20041;-63
2023/09/09 11:21:39;;;;;;;6.40;5.85;;;;;;;33.09;24.93;101605.78;5014630;28;20152;-64
2023/09/09 11:24:05;;;;;;;6.30;5.18;;;;;;;32.95;25.38;101609.44;5016112;28;20410;-63
2023/09/09 11:26:31;;;;;;;10.25;6.07;;;;;;;32.35;25.71;101609.53;5014837;28;20685;-63